Time;durP1;ratioP1;P1;durP2;ratioP2;P2;SDS_P1;SDS_P2;PMS_P1;PMS_P2;Temp;Humidity;BMP_temperature;BMP_pressure;BME280_temperature;BME280_humidity;BME280_pressure;Samples;Min_cycle;Max_cycle;Signal;HPM_P1;HPM_P2
2022/04/29 00:00:06;;;;;;;0.20;0.20;;;8.70;88.20;;;;;;5033326;28;20477;-74
2022/04/29 00:02:32;;;;;;;0.20;0.20;;;8.80;88.10;;;;;;5015797;28;20431;-74
2022/04/29 00:04:58;;;;;;;0.20;0.20;;;8.90;87.30;;;;;;5033052;28;20017;-74
2022/04/29 00:07:23;;;;;;;0.20;0.20;;;8.90;87.40;;;;;;5033228;28;20504;-74
2022/04/29 00:09:49;;;;;;;0.20;0.20;;;8.90;86.40;;;;;;5032835;28;20048;-74
2022/04/29 00:12:15;;;;;;;0.20;0.20;;;8.90;87.20;;;;;;5032904;28;20100;-74
2022/04/29 00:14:41;;;;;;;0.20;0.20;;;8.80;86.70;;;;;;5032867;28;20029;-74
2022/04/29 00:17:06;;;;;;;0.20;0.20;;;8.90;86.90;;;;;;4998525;28;20029;-74
2022/04/29 00:19:33;;;;;;;0.20;0.20;;;8.70;87.90;;;;;;5015099;28;20029;-74
2022/04/29 00:21:59;;;;;;;0.20;0.20;;;8.80;87.70;;;;;;5015180;28;20026;-74
2022/04/29 00:24:25;;;;;;;0.25;0.25;;;8.80;88.00;;;;;;5014924;28;20026;-74
2022/04/29 00:26:51;;;;;;;0.20;0.20;;;8.70;86.70;;;;;;5032418;28;20381;-74
2022/04/29 00:29:17;;;;;;;0.20;0.20;;;8.60;87.60;;;;;;5032580;28;20099;-74
2022/04/29 00:31:43;;;;;;;0.65;0.57;;;8.50;88.40;;;;;;5014822;28;20026;-74
2022/04/29 00:34:09;;;;;;;0.20;0.20;;;8.50;88.30;;;;;;5032605;28;20041;-74
2022/04/29 00:36:35;;;;;;;0.25;0.25;;;8.30;87.90;;;;;;5014566;28;20029;-74
2022/04/29 00:39:00;;;;;;;0.20;0.20;;;8.20;89.70;;;;;;5014707;28;20026;-74
2022/04/29 00:41:26;;;;;;;0.20;0.20;;;8.20;90.10;;;;;;5032350;28;20056;-74
2022/04/29 00:44:07;;;;;;;0.30;0.30;;;8.20;90.10;;;;;;5032200;28;20071;-74
2022/04/29 00:46:35;;;;;;;0.20;0.20;;;8.20;89.70;;;;;;5014173;28;20053;-74
2022/04/29 00:49:02;;;;;;;0.13;0.13;;;8.00;89.40;;;;;;5014877;28;20026;-74
2022/04/29 00:51:28;;;;;;;0.20;0.20;;;7.90;90.00;;;;;;5032089;28;20389;-74
2022/04/29 00:53:56;;;;;;;0.20;0.20;;;7.90;90.50;;;;;;5014599;28;20104;-74
2022/04/29 00:56:22;;;;;;;0.25;0.25;;;7.90;90.00;;;;;;5032032;28;20029;-74
2022/04/29 00:58:58;;;;;;;0.10;0.10;;;8.10;90.30;;;;;;5014630;28;20469;-74
2022/04/29 01:01:25;;;;;;;0.20;0.20;;;8.10;90.10;;;;;;5032513;28;20026;-74
2022/04/29 01:03:53;;;;;;;0.20;0.20;;;8.20;90.00;;;;;;5032558;28;20100;-74
2022/04/29 01:06:19;;;;;;;0.20;0.20;;;8.00;90.30;;;;;;5013988;28;20021;-74
2022/04/29 01:08:45;;;;;;;0.45;0.45;;;8.00;90.30;;;;;;5014300;28;20029;-74
2022/04/29 01:11:10;;;;;;;0.20;0.20;;;8.10;90.30;;;;;;5032051;28;20036;-74
2022/04/29 01:13:36;;;;;;;0.10;0.10;;;8.20;90.20;;;;;;5014365;28;20044;-74
2022/04/29 01:16:02;;;;;;;0.30;0.30;;;8.30;90.30;;;;;;5031833;28;20385;-74
2022/04/29 01:18:28;;;;;;;0.20;0.20;;;8.30;90.10;;;;;;5031773;28;20037;-74
2022/04/29 01:21:03;;;;;;;0.20;0.20;;;8.20;90.10;;;;;;5031890;28;20025;-74
2022/04/29 01:23:29;;;;;;;0.30;0.30;;;8.30;90.10;;;;;;5014246;28;20018;-74
2022/04/29 01:25:54;;;;;;;0.20;0.20;;;8.10;90.10;;;;;;5031604;28;20086;-74
2022/04/29 01:28:21;;;;;;;0.20;0.20;;;8.10;90.40;;;;;;5014219;28;20021;-74
2022/04/29 01:30:49;;;;;;;0.20;0.20;;;8.00;90.60;;;;;;5031871;28;20033;-74
2022/04/29 01:33:16;;;;;;;0.20;0.20;;;8.00;90.30;;;;;;5031646;28;20048;-74
2022/04/29 01:35:41;;;;;;;0.20;0.20;;;8.00;90.50;;;;;;4997553;28;20026;-74
2022/04/29 01:38:07;;;;;;;0.25;0.25;;;7.90;90.60;;;;;;5031614;28;20022;-74
2022/04/29 01:40:33;;;;;;;0.30;0.30;;;7.70;91.20;;;;;;5013989;28;20363;-74
2022/04/29 01:42:58;;;;;;;0.63;0.63;;;7.70;91.50;;;;;;4997633;28;20028;-74
2022/04/29 01:45:24;;;;;;;0.20;0.20;;;7.70;91.20;;;;;;5031543;28;20029;-74
2022/04/29 01:47:50;;;;;;;0.28;0.28;;;7.90;91.60;;;;;;5031841;28;20026;-74
2022/04/29 01:50:16;;;;;;;1.33;1.25;;;7.90;91.50;;;;;;5031569;28;20022;-74
2022/04/29 01:52:41;;;;;;;0.20;0.20;;;7.80;91.20;;;;;;5031728;28;20060;-74
2022/04/29 01:55:07;;;;;;;0.30;0.30;;;7.80;91.50;;;;;;5031634;28;20053;-74
2022/04/29 01:57:34;;;;;;;0.20;0.20;;;7.80;91.40;;;;;;5017141;28;20071;-74
2022/04/29 02:00:04;;;;;;;0.15;0.15;;;7.80;91.10;;;;;;5017716;28;20561;-74
2022/04/29 02:02:30;;;;;;;0.20;0.20;;;7.70;91.00;;;;;;5017937;28;20022;-74
2022/04/29 02:04:56;;;;;;;0.32;0.32;;;7.70;91.70;;;;;;5035294;28;20033;-74
2022/04/29 02:07:22;;;;;;;0.20;0.20;;;7.70;91.20;;;;;;5017402;28;20535;-74
2022/04/29 02:09:47;;;;;;;0.30;0.30;;;7.60;91.30;;;;;;5035265;28;20026;-74
2022/04/29 02:12:15;;;;;;;0.25;0.25;;;7.50;91.40;;;;;;5035231;28;20079;-74
2022/04/29 02:14:42;;;;;;;0.68;0.68;;;7.50;91.70;;;;;;5017275;28;20025;-74
2022/04/29 02:17:10;;;;;;;0.20;0.20;;;7.60;92.40;;;;;;5034901;28;20041;-74
2022/04/29 02:19:36;;;;;;;0.85;0.85;;;7.60;91.90;;;;;;5034863;28;20025;-74
2022/04/29 02:22:04;;;;;;;0.15;0.15;;;7.50;92.20;;;;;;5035018;28;20053;-74
2022/04/29 02:24:31;;;;;;;0.45;0.45;;;7.60;92.30;;;;;;5035001;28;20025;-74
2022/04/29 02:26:59;;;;;;;0.20;0.20;;;7.80;92.50;;;;;;5016895;28;20022;-74
2022/04/29 02:29:25;;;;;;;0.20;0.20;;;7.70;91.40;;;;;;5016592;28;20037;-74
2022/04/29 02:31:52;;;;;;;0.20;0.20;;;7.40;91.80;;;;;;5034787;28;20024;-75
2022/04/29 02:34:18;;;;;;;0.20;0.20;;;7.30;92.00;;;;;;5017045;28;20386;-74
2022/04/29 02:36:44;;;;;;;0.20;0.20;;;7.20;92.30;;;;;;5016849;28;20045;-74
2022/04/29 02:39:10;;;;;;;0.40;0.40;;;7.20;92.60;;;;;;5016827;28;20151;-74
2022/04/29 02:41:39;;;;;;;0.22;0.22;;;7.20;92.80;;;;;;5034579;28;20100;-74
2022/04/29 02:44:05;;;;;;;0.30;0.30;;;7.10;92.60;;;;;;5035088;28;20120;-74
2022/04/29 02:46:30;;;;;;;0.45;0.45;;;7.10;93.00;;;;;;5034335;28;20025;-74
2022/04/29 02:48:56;;;;;;;0.20;0.20;;;7.10;92.80;;;;;;5034618;28;20472;-74
2022/04/29 02:51:22;;;;;;;0.40;0.40;;;7.20;93.40;;;;;;5034445;28;20032;-74
2022/04/29 02:53:47;;;;;;;0.20;0.20;;;7.00;93.30;;;;;;5034414;28;20030;-74
2022/04/29 02:56:13;;;;;;;0.20;0.20;;;7.10;93.20;;;;;;5034106;28;20034;-74
2022/04/29 02:58:39;;;;;;;0.20;0.20;;;7.00;93.20;;;;;;5000116;28;20033;-74
2022/04/29 03:01:05;;;;;;;0.30;0.30;;;7.00;94.00;;;;;;5016650;28;20025;-74
2022/04/29 03:03:31;;;;;;;0.20;0.20;;;7.10;93.80;;;;;;5016481;28;20021;-74
2022/04/29 03:05:56;;;;;;;0.25;0.25;;;7.20;93.40;;;;;;5033990;28;20105;-74
2022/04/29 03:08:22;;;;;;;0.20;0.20;;;7.00;93.30;;;;;;5015637;28;20116;-74
2022/04/29 03:10:48;;;;;;;0.40;0.40;;;7.00;93.40;;;;;;5034119;28;20079;-74
2022/04/29 03:13:14;;;;;;;0.25;0.25;;;7.00;93.90;;;;;;5034047;28;20034;-74
2022/04/29 03:15:40;;;;;;;0.20;0.20;;;7.00;93.40;;;;;;5016069;28;20032;-74
2022/04/29 03:18:18;;;;;;;0.20;0.20;;;7.00;93.20;;;;;;5033836;28;20033;-74
2022/04/29 03:20:45;;;;;;;0.20;0.20;;;6.90;93.70;;;;;;5016187;28;20022;-74
2022/04/29 03:23:12;;;;;;;0.40;0.40;;;6.90;93.90;;;;;;5033984;28;20100;-73
2022/04/29 03:25:41;;;;;;;0.20;0.20;;;6.90;94.20;;;;;;5033498;28;20395;-73
2022/04/29 03:28:07;;;;;;;0.20;0.20;;;7.00;94.50;;;;;;5033729;28;20021;-73
2022/04/29 03:30:34;;;;;;;0.20;0.20;;;7.10;93.70;;;;;;5033835;28;20025;-73
2022/04/29 03:33:02;;;;;;;0.10;0.10;;;7.00;94.30;;;;;;5033577;28;20496;-73
2022/04/29 03:35:28;;;;;;;0.47;0.47;;;7.00;93.60;;;;;;5033512;28;20021;-73
2022/04/29 03:37:54;;;;;;;0.20;0.20;;;7.00;94.90;;;;;;5015693;28;20029;-73
2022/04/29 03:40:21;;;;;;;1.02;0.80;;;6.80;94.30;;;;;;5015716;28;20120;-73
2022/04/29 03:42:57;;;;;;;0.20;0.20;;;6.50;95.00;;;;;;5033451;28;20049;-73
2022/04/29 03:45:25;;;;;;;0.35;0.35;;;6.50;96.40;;;;;;5033506;28;20024;-73
2022/04/29 03:47:50;;;;;;;0.25;0.25;;;6.50;96.60;;;;;;4999040;28;20053;-73
2022/04/29 03:50:16;;;;;;;0.20;0.20;;;6.60;96.90;;;;;;5033443;28;20021;-73
2022/04/29 03:52:53;;;;;;;0.20;0.20;;;6.70;96.60;;;;;;5033286;28;20037;-73
2022/04/29 03:55:21;;;;;;;0.30;0.30;;;6.70;96.90;;;;;;5033263;28;20381;-73
2022/04/29 03:57:48;;;;;;;0.30;0.30;;;6.80;97.30;;;;;;5032789;28;20109;-73
2022/04/29 04:00:14;;;;;;;0.20;0.20;;;7.00;96.80;;;;;;5033155;28;20021;-73
2022/04/29 04:02:41;;;;;;;0.50;0.50;;;7.00;96.30;;;;;;5015610;28;20108;-73
2022/04/29 04:05:08;;;;;;;0.20;0.20;;;6.90;96.90;;;;;;5033030;28;20063;-73
2022/04/29 04:07:34;;;;;;;0.28;0.28;;;6.90;96.50;;;;;;4998759;28;20090;-73
2022/04/29 04:10:00;;;;;;;0.20;0.20;;;6.80;96.70;;;;;;5015226;28;20493;-73
2022/04/29 04:12:26;;;;;;;0.35;0.35;;;6.90;96.90;;;;;;5015410;28;20036;-73
2022/04/29 04:14:52;;;;;;;0.85;0.63;;;7.00;96.80;;;;;;5015375;28;20068;-73
2022/04/29 04:17:17;;;;;;;1.02;1.02;;;7.00;97.10;;;;;;4998470;28;20061;-73
2022/04/29 04:19:43;;;;;;;0.20;0.20;;;7.00;96.90;;;;;;5032602;28;20025;-73
2022/04/29 04:22:10;;;;;;;0.30;0.30;;;7.10;96.60;;;;;;5032834;28;20026;-73
2022/04/29 04:24:36;;;;;;;0.20;0.20;;;7.10;96.80;;;;;;5032692;28;20034;-73
2022/04/29 04:27:02;;;;;;;0.35;0.35;;;7.20;97.20;;;;;;5032354;28;20100;-73
2022/04/29 04:29:27;;;;;;;0.30;0.30;;;7.20;96.60;;;;;;5014861;28;20551;-73
2022/04/29 04:31:53;;;;;;;0.20;0.20;;;7.10;97.70;;;;;;5032558;28;20052;-73
2022/04/29 04:37:03;;;;;;;0.38;0.38;;;7.10;96.80;;;;;;5032369;28;20075;-73
2022/04/29 04:39:29;;;;;;;2.83;2.60;;;7.20;97.30;;;;;;5032312;28;20022;-73
2022/04/29 04:41:55;;;;;;;1.65;1.55;;;7.20;97.40;;;;;;5032533;28;20025;-74
2022/04/29 04:44:21;;;;;;;2.53;1.45;;;7.10;97.30;;;;;;5014749;28;20017;-73
2022/04/29 04:46:47;;;;;;;0.20;0.20;;;7.00;97.60;;;;;;5031902;28;20526;-73
2022/04/29 04:49:13;;;;;;;0.25;0.25;;;7.10;98.80;;;;;;5032286;28;20030;-73
2022/04/29 04:51:39;;;;;;;0.20;0.20;;;7.30;97.30;;;;;;5032210;28;20480;-73
2022/04/29 04:54:05;;;;;;;0.28;0.28;;;7.30;97.40;;;;;;5014694;28;20040;-73
2022/04/29 04:56:30;;;;;;;0.40;0.40;;;7.40;97.80;;;;;;5014390;28;20424;-73
2022/04/29 04:58:56;;;;;;;0.30;0.30;;;7.50;97.90;;;;;;5014157;28;20112;-73
2022/04/29 05:01:22;;;;;;;0.22;0.22;;;7.60;97.80;;;;;;4997872;28;20021;-73
2022/04/29 05:03:48;;;;;;;0.20;0.20;;;7.60;97.60;;;;;;5014495;28;20013;-73
2022/04/29 05:06:14;;;;;;;0.35;0.35;;;7.70;97.00;;;;;;4997960;28;20056;-73
2022/04/29 05:08:39;;;;;;;0.30;0.30;;;7.80;97.20;;;;;;5014383;28;20454;-73
2022/04/29 05:11:05;;;;;;;0.20;0.20;;;7.80;97.00;;;;;;5014235;28;20041;-73
2022/04/29 05:13:31;;;;;;;0.30;0.30;;;7.90;97.10;;;;;;5031982;28;20036;-73
2022/04/29 05:15:57;;;;;;;0.20;0.20;;;8.10;97.30;;;;;;5031726;28;20099;-73
2022/04/29 05:18:23;;;;;;;0.28;0.28;;;8.20;96.90;;;;;;5031866;28;20108;-73
2022/04/29 05:20:48;;;;;;;0.50;0.50;;;8.40;97.00;;;;;;5031901;28;20469;-73
2022/04/29 05:23:15;;;;;;;0.30;0.30;;;8.40;96.70;;;;;;5012653;28;20029;-73
2022/04/29 05:25:41;;;;;;;0.20;0.20;;;8.30;96.80;;;;;;5001931;28;20021;-73
2022/04/29 05:28:07;;;;;;;0.20;0.20;;;8.50;96.50;;;;;;5015473;28;20047;-73
2022/04/29 05:30:34;;;;;;;0.30;0.30;;;8.70;96.20;;;;;;5027789;28;20080;-73
2022/04/29 05:33:00;;;;;;;0.32;0.32;;;8.80;95.80;;;;;;5032070;28;20068;-73
2022/04/29 05:35:26;;;;;;;0.85;0.65;;;8.70;96.20;;;;;;5035563;28;20032;-73
2022/04/29 05:37:53;;;;;;;0.20;0.20;;;8.70;96.50;;;;;;5035900;28;20030;-73
2022/04/29 05:43:03;;;;;;;0.60;0.60;;;8.80;97.70;;;;;;5035488;28;20041;-73
2022/04/29 05:45:29;;;;;;;0.40;0.40;;;8.60;98.50;;;;;;5017688;28;20014;-73
2022/04/29 05:47:55;;;;;;;0.20;0.20;;;8.70;98.90;;;;;;5017381;28;20109;-73
2022/04/29 05:50:21;;;;;;;0.30;0.30;;;9.00;98.30;;;;;;5017811;28;20017;-73
2022/04/29 05:52:47;;;;;;;2.55;0.68;;;9.10;97.70;;;;;;5017588;28;20025;-73
2022/04/29 05:55:13;;;;;;;0.50;0.50;;;9.00;97.80;;;;;;5035081;28;20049;-73
2022/04/29 05:57:39;;;;;;;1.25;1.10;;;9.00;97.50;;;;;;5035157;28;20021;-73
2022/04/29 06:00:07;;;;;;;0.28;0.28;;;8.80;96.90;;;;;;5035166;28;20037;-73
2022/04/29 06:02:33;;;;;;;0.30;0.30;;;8.70;97.30;;;;;;5017447;28;20022;-73
2022/04/29 06:05:02;;;;;;;0.30;0.30;;;8.90;97.00;;;;;;5017585;28;20028;-73
2022/04/29 06:07:28;;;;;;;0.30;0.30;;;9.20;95.70;;;;;;5034766;28;20031;-73
2022/04/29 06:09:54;;;;;;;0.57;0.57;;;9.30;95.40;;;;;;5035120;28;20526;-73
2022/04/29 06:12:20;;;;;;;0.20;0.20;;;9.40;95.30;;;;;;5034786;28;20105;-73
2022/04/29 06:14:45;;;;;;;0.20;0.20;;;9.60;95.50;;;;;;5035000;28;20370;-74
2022/04/29 06:17:12;;;;;;;0.20;0.20;;;9.80;94.70;;;;;;5033511;28;20091;-73
2022/04/29 06:19:39;;;;;;;0.17;0.17;;;9.90;93.90;;;;;;5035112;28;20120;-73
2022/04/29 06:22:05;;;;;;;0.73;0.50;;;10.10;93.10;;;;;;5016978;28;20026;-73
2022/04/29 06:24:32;;;;;;;0.20;0.20;;;10.00;92.60;;;;;;5033900;28;20025;-73
2022/04/29 06:26:58;;;;;;;1.25;1.10;;;10.00;93.10;;;;;;5016037;28;20065;-73
2022/04/29 06:29:23;;;;;;;0.20;0.20;;;10.10;93.00;;;;;;5035059;28;20406;-73
2022/04/29 06:31:49;;;;;;;0.70;0.52;;;10.10;92.60;;;;;;5034717;28;20092;-73
2022/04/29 06:34:15;;;;;;;0.20;0.20;;;10.20;92.90;;;;;;5034374;28;20075;-73
2022/04/29 06:36:41;;;;;;;0.20;0.20;;;10.40;93.00;;;;;;5016594;28;20029;-73
2022/04/29 06:39:07;;;;;;;0.10;0.10;;;10.50;93.20;;;;;;5000306;28;20501;-73
2022/04/29 06:41:32;;;;;;;0.20;0.20;;;10.80;93.50;;;;;;5030432;28;20102;-73
2022/04/29 06:43:58;;;;;;;0.75;0.75;;;10.90;93.20;;;;;;5032267;28;20053;-73
2022/04/29 06:46:25;;;;;;;0.20;0.20;;;10.70;93.00;;;;;;5032029;28;20024;-73
2022/04/29 06:48:54;;;;;;;0.38;0.38;;;10.80;92.90;;;;;;5031682;28;20072;-73
2022/04/29 06:51:20;;;;;;;2.92;1.50;;;10.70;92.50;;;;;;5032497;28;20100;-73
2022/04/29 06:53:46;;;;;;;0.45;0.45;;;10.90;92.30;;;;;;5014842;28;20021;-73
2022/04/29 06:56:12;;;;;;;0.20;0.20;;;10.90;92.30;;;;;;5032322;28;20025;-73
2022/04/29 06:58:38;;;;;;;0.20;0.20;;;11.10;92.50;;;;;;5014601;28;20032;-73
2022/04/29 07:01:04;;;;;;;0.20;0.20;;;11.30;92.10;;;;;;5032790;28;20025;-74
2022/04/29 07:03:29;;;;;;;0.20;0.20;;;11.30;91.70;;;;;;5031925;28;20013;-74
2022/04/29 07:05:57;;;;;;;0.30;0.30;;;11.50;91.20;;;;;;5014285;28;20025;-74
2022/04/29 07:08:23;;;;;;;0.22;0.22;;;11.70;90.10;;;;;;5032012;28;20025;-74
2022/04/29 07:10:49;;;;;;;0.25;0.25;;;11.80;87.80;;;;;;5032448;28;20406;-73
2022/04/29 07:13:14;;;;;;;1.52;1.42;;;12.00;87.20;;;;;;5032423;28;20097;-73
2022/04/29 07:15:43;;;;;;;0.20;0.20;;;12.10;85.90;;;;;;5032091;28;20044;-73
2022/04/29 07:18:10;;;;;;;0.25;0.25;;;12.30;85.80;;;;;;5031584;28;20030;-73
2022/04/29 07:20:36;;;;;;;0.65;0.65;;;12.30;85.80;;;;;;5031000;28;20079;-73
2022/04/29 07:23:02;;;;;;;0.80;0.50;;;12.50;85.10;;;;;;5031660;28;20491;-73
2022/04/29 07:25:28;;;;;;;0.20;0.20;;;12.60;83.00;;;;;;5031499;28;20021;-74
2022/04/29 07:27:54;;;;;;;0.32;0.32;;;12.70;82.80;;;;;;5009146;28;20385;-73
2022/04/29 07:30:19;;;;;;;0.65;0.65;;;12.70;83.40;;;;;;5019795;28;20029;-74
2022/04/29 07:32:45;;;;;;;1.67;1.23;;;12.80;83.00;;;;;;5021049;28;20489;-74
2022/04/29 07:43:25;;;;;;;0.30;0.30;;;13.20;76.10;;;;;;5007974;28;20057;-74
2022/04/29 07:45:51;;;;;;;0.20;0.20;;;13.10;74.60;;;;;;5009701;28;20499;-74
2022/04/29 07:48:17;;;;;;;1.58;1.48;;;13.30;75.50;;;;;;5020609;28;20017;-74
2022/04/29 07:50:43;;;;;;;0.20;0.20;;;13.60;76.60;;;;;;5020097;28;20898;-74
2022/04/29 07:53:09;;;;;;;5.32;1.17;;;13.80;76.00;;;;;;4991260;28;20029;-74
2022/04/29 07:55:36;;;;;;;0.55;0.55;;;14.00;72.00;;;;;;5020413;28;20033;-74
2022/04/29 07:58:05;;;;;;;1.80;1.17;;;13.90;72.10;;;;;;5019604;28;20068;-74
2022/04/29 08:00:31;;;;;;;0.10;0.10;;;14.00;70.40;;;;;;5020354;28;20041;-74
2022/04/29 08:03:01;;;;;;;1.55;0.93;;;14.10;71.30;;;;;;5020245;28;20021;-74
2022/04/29 08:05:27;;;;;;;0.20;0.20;;;14.10;68.80;;;;;;5020521;28;20049;-74
2022/04/29 08:07:55;;;;;;;0.75;0.75;;;14.00;67.70;;;;;;5020229;28;20029;-74
2022/04/29 08:10:22;;;;;;;0.80;0.20;;;14.20;68.60;;;;;;5019949;28;20506;-74
2022/04/29 08:12:48;;;;;;;0.75;0.75;;;14.40;68.40;;;;;;5008867;28;20071;-74
2022/04/29 08:15:14;;;;;;;1.05;0.95;;;14.50;67.60;;;;;;5008629;28;20140;-73
2022/04/29 08:17:40;;;;;;;0.20;0.20;;;14.80;66.50;;;;;;5020068;28;20117;-73
2022/04/29 08:20:08;;;;;;;0.17;0.17;;;14.90;64.50;;;;;;5020651;28;20029;-73
2022/04/29 08:22:34;;;;;;;0.80;0.80;;;14.70;65.50;;;;;;5018936;28;20022;-74
2022/04/29 08:25:00;;;;;;;0.40;0.40;;;14.80;64.40;;;;;;5019628;28;20036;-73
2022/04/29 08:27:28;;;;;;;0.70;0.70;;;14.80;63.80;;;;;;5018043;28;20132;-73
2022/04/29 08:29:54;;;;;;;0.52;0.52;;;14.90;64.00;;;;;;4992723;28;20374;-74
2022/04/29 08:32:19;;;;;;;0.30;0.30;;;14.90;64.80;;;;;;5007946;28;20105;-74
2022/04/29 08:34:45;;;;;;;2.58;1.10;;;14.80;62.90;;;;;;5020273;28;20042;-73
2022/04/29 08:37:11;;;;;;;0.55;0.55;;;15.10;64.20;;;;;;4993428;28;20149;-74
2022/04/29 08:39:37;;;;;;;1.30;1.30;;;15.30;63.30;;;;;;5010663;28;20026;-73
2022/04/29 08:42:03;;;;;;;0.80;0.52;;;15.40;61.70;;;;;;5018839;28;20022;-73
2022/04/29 08:44:30;;;;;;;1.00;0.88;;;15.50;61.80;;;;;;5009886;28;20032;-73
2022/04/29 08:46:59;;;;;;;0.85;0.60;;;15.70;60.50;;;;;;4993242;28;20029;-73
2022/04/29 08:49:25;;;;;;;0.77;0.77;;;15.80;58.90;;;;;;5009200;28;20072;-73
2022/04/29 08:51:52;;;;;;;5.95;2.13;;;16.00;59.40;;;;;;4991777;28;20037;-74
2022/04/29 08:59:58;;;;;;;0.50;0.50;;;17.00;56.50;;;;;;5019387;28;20041;-74
2022/04/29 09:02:25;;;;;;;0.50;0.50;;;17.30;56.30;;;;;;5019844;28;20022;-73
2022/04/29 09:04:53;;;;;;;0.63;0.63;;;17.50;55.30;;;;;;4991859;28;20080;-74
2022/04/29 09:07:19;;;;;;;7.13;3.17;;;17.60;55.30;;;;;;4988982;28;20048;-74
2022/04/29 09:10:02;;;;;;;7.45;1.35;;;17.80;55.00;;;;;;5007698;28;20033;-74
2022/04/29 09:12:29;;;;;;;1.75;1.38;;;17.70;54.40;;;;;;5018233;28;20090;-74
2022/04/29 09:15:12;;;;;;;0.75;0.75;;;17.90;54.30;;;;;;5018921;28;20431;-74
2022/04/29 09:17:40;;;;;;;0.20;0.20;;;18.00;53.10;;;;;;5018334;28;20036;-74
2022/04/29 09:20:19;;;;;;;9.02;1.40;;;18.00;52.00;;;;;;5018579;28;20033;-74
2022/04/29 09:22:52;;;;;;;3.45;1.80;;;17.90;52.60;;;;;;5018112;28;20718;-74
2022/04/29 09:25:18;;;;;;;2.78;2.60;;;18.10;52.00;;;;;;5010823;28;20025;-74
2022/04/29 09:28:02;;;;;;;0.98;0.90;;;18.20;52.00;;;;;;5008644;28;20018;-74
2022/04/29 09:30:34;;;;;;;0.45;0.40;;;18.40;51.20;;;;;;5019123;28;20502;-74
2022/04/29 09:33:00;;;;;;;1.40;1.08;;;18.80;51.20;;;;;;5006060;28;20045;-74
2022/04/29 09:35:42;;;;;;;1.67;0.38;;;19.00;50.70;;;;;;5018740;28;20033;-74
2022/04/29 09:40:55;;;;;;;4.22;1.38;;;19.30;49.60;;;;;;5019023;28;20033;-74
2022/04/29 09:43:42;;;;;;;5.88;2.40;;;19.10;49.50;;;;;;5019307;28;20034;-74
2022/04/29 09:46:25;;;;;;;0.70;0.70;;;18.70;50.70;;;;;;5009871;28;20037;-74
2022/04/29 09:49:04;;;;;;;0.60;0.35;;;19.40;50.10;;;;;;5009170;28;20065;-73
2022/04/29 09:51:41;;;;;;;5.68;0.85;;;19.80;49.30;;;;;;5019921;28;20441;-73
2022/04/29 09:54:27;;;;;;;2.03;1.38;;;20.10;48.10;;;;;;5018846;28;20038;-73
2022/04/29 09:57:18;;;;;;;0.40;0.32;;;20.00;47.40;;;;;;5019409;28;20466;-73
2022/04/29 09:59:51;;;;;;;1.85;1.23;;;20.20;48.20;;;;;;5018548;28;20060;-73
2022/04/29 10:02:19;;;;;;;0.73;0.73;;;20.40;48.40;;;;;;4990813;28;20346;-73
2022/04/29 10:04:46;;;;;;;0.60;0.55;;;20.70;47.80;;;;;;5019059;28;20025;-74
2022/04/29 10:07:17;;;;;;;0.43;0.43;;;20.60;48.10;;;;;;5010423;28;20108;-73
2022/04/29 10:09:48;;;;;;;2.53;0.52;;;20.40;47.30;;;;;;5024457;28;20269;-74
2022/04/29 10:12:16;;;;;;;0.22;0.22;;;19.90;49.00;;;;;;5030836;28;20396;-73
2022/04/29 10:14:44;;;;;;;0.35;0.35;;;19.50;49.60;;;;;;4997548;28;20026;-73
2022/04/29 10:22:50;;;;;;;7.47;1.55;;;18.30;51.30;;;;;;5033494;28;20071;-71
2022/04/29 10:25:27;;;;;;;0.10;0.10;;;18.40;51.50;;;;;;5016673;28;20017;-71
2022/04/29 10:27:53;;;;;;;0.52;0.52;;;19.00;51.30;;;;;;5034512;28;20045;-70
2022/04/29 10:30:28;;;;;;;1.40;0.82;;;19.40;50.50;;;;;;5037780;28;20476;-71
2022/04/29 10:33:08;;;;;;;1.75;1.17;;;19.60;49.70;;;;;;5011316;28;20036;-70
2022/04/29 10:35:40;;;;;;;0.20;0.20;;;19.50;49.00;;;;;;5036209;28;20378;-69
2022/04/29 10:38:16;;;;;;;0.73;0.68;;;20.10;49.40;;;;;;5039366;28;20024;-70
2022/04/29 10:40:43;;;;;;;0.38;0.38;;;20.50;48.30;;;;;;5055405;28;20032;-71
2022/04/29 10:43:10;;;;;;;0.75;0.40;;;20.90;46.50;;;;;;5055083;28;20040;-70
2022/04/29 10:46:05;;;;;;;0.38;0.38;;;21.00;45.50;;;;;;5053971;28;20021;-70
2022/04/29 10:48:36;;;;;;;0.82;0.60;;;21.00;44.00;;;;;;5055209;28;20447;-71
2022/04/29 10:51:14;;;;;;;0.80;0.80;;;20.90;44.00;;;;;;5054232;28;20059;-70
2022/04/29 10:53:42;;;;;;;1.33;0.95;;;20.70;45.10;;;;;;5053927;28;20052;-70
2022/04/29 10:56:26;;;;;;;0.25;0.25;;;20.80;44.30;;;;;;5053848;28;20453;-70
2022/04/29 10:58:52;;;;;;;1.80;1.40;;;20.80;43.60;;;;;;5035115;28;20052;-70
2022/04/29 11:01:27;;;;;;;0.45;0.45;;;20.70;43.70;;;;;;5052670;28;20312;-71
2022/04/29 11:03:53;;;;;;;0.30;0.30;;;20.70;44.70;;;;;;5053674;28;20017;-71
2022/04/29 11:06:19;;;;;;;0.20;0.20;;;20.80;43.40;;;;;;5053497;28;20032;-71
2022/04/29 11:08:46;;;;;;;0.10;0.10;;;20.90;42.70;;;;;;5053582;28;20044;-70
2022/04/29 11:11:12;;;;;;;0.20;0.20;;;21.10;44.10;;;;;;5053669;28;20537;-70
2022/04/29 11:13:43;;;;;;;0.20;0.20;;;21.30;43.80;;;;;;5053784;28;20036;-70
2022/04/29 11:16:14;;;;;;;0.73;0.73;;;21.30;42.80;;;;;;5053845;28;20384;-70
2022/04/29 11:18:42;;;;;;;0.00;0.00;;;21.10;42.80;;;;;;5034989;28;20037;-70
2022/04/29 11:26:49;;;;;;;0.83;0.83;;;21.70;41.80;;;;;;5034828;28;20078;-70
2022/04/29 11:29:17;;;;;;;0.10;0.10;;;21.30;43.20;;;;;;5052336;28;20032;-71
2022/04/29 11:31:43;;;;;;;0.60;0.60;;;21.00;42.50;;;;;;5053620;28;20035;-71
2022/04/29 11:34:13;;;;;;;0.47;0.47;;;21.10;43.50;;;;;;5052879;28;20029;-71
2022/04/29 11:36:40;;;;;;;1.08;1.08;;;21.30;43.90;;;;;;5045448;28;20057;-71
2022/04/29 11:39:17;;;;;;;1.05;0.52;;;21.60;43.30;;;;;;5033419;28;20021;-71
2022/04/29 11:41:57;;;;;;;0.15;0.15;;;21.50;43.50;;;;;;5047091;28;20017;-71
2022/04/29 11:44:40;;;;;;;1.40;0.60;;;21.20;43.20;;;;;;5035486;28;20105;-71
2022/04/29 11:47:06;;;;;;;0.22;0.22;;;21.00;43.60;;;;;;5052759;28;20025;-72
2022/04/29 11:49:34;;;;;;;1.35;0.85;;;21.30;42.80;;;;;;5052469;28;20095;-71
2022/04/29 11:52:18;;;;;;;0.10;0.10;;;21.40;42.40;;;;;;5035107;28;20021;-71
2022/04/29 11:54:55;;;;;;;0.75;0.57;;;21.30;42.60;;;;;;5052977;28;20475;-71
2022/04/29 11:57:21;;;;;;;0.10;0.10;;;21.70;43.10;;;;;;5052624;28;20068;-72
2022/04/29 11:59:48;;;;;;;0.13;0.13;;;21.70;42.70;;;;;;5034872;28;20029;-71
2022/04/29 12:02:18;;;;;;;0.40;0.40;;;21.90;42.60;;;;;;5050988;28;20103;-72
2022/04/29 12:04:57;;;;;;;0.57;0.57;;;21.80;42.60;;;;;;5051922;28;20045;-72
2022/04/29 12:07:25;;;;;;;1.13;0.93;;;21.60;42.90;;;;;;5052219;28;20038;-71
2022/04/29 12:09:52;;;;;;;1.30;0.70;;;21.20;44.00;;;;;;5052878;28;20033;-72
2022/04/29 12:12:25;;;;;;;1.40;1.20;;;20.90;43.90;;;;;;5053572;28;20071;-71
2022/04/29 12:14:52;;;;;;;0.57;0.57;;;20.60;44.10;;;;;;5033795;28;20033;-72
2022/04/29 12:17:18;;;;;;;0.10;0.10;;;20.60;45.10;;;;;;5051936;28;20058;-71
2022/04/29 12:19:43;;;;;;;0.28;0.28;;;20.60;45.50;;;;;;5052432;28;20536;-71
2022/04/29 12:22:11;;;;;;;2.97;0.88;;;20.80;45.00;;;;;;5051922;28;20048;-71
2022/04/29 12:24:42;;;;;;;0.45;0.45;;;20.70;44.40;;;;;;5051869;28;20106;-71
2022/04/29 12:27:09;;;;;;;2.80;1.38;;;20.80;44.80;;;;;;5052276;28;20029;-73
2022/04/29 12:29:38;;;;;;;0.45;0.45;;;20.90;45.40;;;;;;5052352;28;20029;-71
2022/04/29 12:35:11;;;;;;;0.22;0.22;;;20.50;45.40;;;;;;5052264;28;20028;-71
2022/04/29 12:37:37;;;;;;;0.00;0.00;;;20.40;46.60;;;;;;5051856;28;20480;-71
2022/04/29 12:40:05;;;;;;;0.10;0.10;;;20.40;46.50;;;;;;5051488;28;20036;-71
2022/04/29 12:42:31;;;;;;;0.30;0.30;;;20.30;46.60;;;;;;5051747;28;20730;-71
2022/04/29 12:45:04;;;;;;;0.45;0.20;;;20.20;45.60;;;;;;5052142;28;20104;-75
2022/04/29 12:47:38;;;;;;;0.40;0.40;;;20.10;47.00;;;;;;5051768;28;20055;-71
2022/04/29 12:50:24;;;;;;;0.05;0.05;;;20.10;46.70;;;;;;5033451;28;20031;-71
2022/04/29 12:52:51;;;;;;;1.20;1.10;;;20.10;47.20;;;;;;5051225;28;20108;-71
2022/04/29 12:55:17;;;;;;;0.10;0.10;;;20.10;45.50;;;;;;5051688;28;20388;-71
2022/04/29 12:57:42;;;;;;;0.38;0.38;;;20.00;46.10;;;;;;5052107;28;20029;-71
2022/04/29 13:00:09;;;;;;;0.30;0.30;;;19.90;46.40;;;;;;5052206;28;20108;-73
2022/04/29 13:02:34;;;;;;;0.10;0.10;;;19.90;45.70;;;;;;5052352;28;20448;-75
2022/04/29 13:05:00;;;;;;;0.55;0.55;;;19.90;45.90;;;;;;5051351;28;20136;-74
2022/04/29 13:07:26;;;;;;;0.13;0.10;;;19.80;47.30;;;;;;5051447;28;20117;-75
2022/04/29 13:09:52;;;;;;;2.05;1.95;;;19.70;47.50;;;;;;5051078;28;20110;-75
2022/04/29 13:12:19;;;;;;;3.30;1.20;;;19.80;48.00;;;;;;5051739;28;20079;-74
2022/04/29 13:14:46;;;;;;;0.13;0.13;;;19.60;47.50;;;;;;5034126;28;20033;-74
2022/04/29 13:17:11;;;;;;;0.20;0.20;;;19.50;47.60;;;;;;5050638;28;20025;-75
2022/04/29 13:19:38;;;;;;;0.22;0.22;;;19.40;47.40;;;;;;5050957;28;20472;-74
2022/04/29 13:22:04;;;;;;;3.88;1.15;;;19.40;47.00;;;;;;5051283;28;20037;-74
2022/04/29 13:24:33;;;;;;;0.22;0.22;;;19.30;47.60;;;;;;5051087;28;20092;-74
2022/04/29 13:26:58;;;;;;;0.10;0.10;;;19.30;47.50;;;;;;5051309;28;20040;-74
2022/04/29 13:29:24;;;;;;;0.10;0.10;;;19.10;47.70;;;;;;5051661;28;20025;-74
2022/04/29 13:31:50;;;;;;;0.10;0.10;;;19.10;47.30;;;;;;5033217;28;20090;-75